Time;durP1;ratioP1;P1;durP2;ratioP2;P2;SDS_P1;SDS_P2;PMS_P1;PMS_P2;Temp;Humidity;BMP_temperature;BMP_pressure;BME280_temperature;BME280_humidity;BME280_pressure;Samples;Min_cycle;Max_cycle;Signal;HPM_P1;HPM_P2
2020/12/01 00:01:46;;;;;;;33.00;5.97;;;;;;;12.35;62.49;101291.16;5062902;28;20033;-83
2020/12/01 00:04:12;;;;;;;27.70;5.93;;;;;;;12.30;62.56;101281.91;5067434;28;20025;-79
2020/12/01 00:06:37;;;;;;;30.98;6.30;;;;;;;12.40;62.14;101292.47;5061608;28;20036;-79
2020/12/01 00:09:03;;;;;;;29.30;6.55;;;;;;;12.29;62.07;101281.03;5069545;28;20036;-78
2020/12/01 00:11:28;;;;;;;19.92;5.85;;;;;;;12.15;62.54;101280.06;5066277;28;20047;-79
2020/12/01 00:13:53;;;;;;;20.67;4.47;;;;;;;12.20;62.14;101276.75;5067070;28;20071;-80
2020/12/01 00:16:19;;;;;;;20.50;5.57;;;;;;;12.28;62.07;101286.69;5066619;28;20032;-79
2020/12/01 00:18:44;;;;;;;18.50;4.65;;;;;;;12.14;62.67;101280.28;5069117;28;20029;-79
2020/12/01 00:21:15;;;;;;;20.08;6.55;;;;;;;12.26;62.55;101277.88;5068551;28;20078;-80
2020/12/01 00:23:41;;;;;;;20.85;5.28;;;;;;;12.29;62.57;101282.94;5069871;28;20214;-78
2020/12/01 00:26:07;;;;;;;23.02;4.70;;;;;;;12.18;62.52;101287.88;5067845;28;20200;-78
2020/12/01 00:28:33;;;;;;;13.05;3.17;;;;;;;12.12;62.85;101285.91;5069384;28;20039;-78
2020/12/01 00:30:59;;;;;;;15.38;3.80;;;;;;;12.12;62.64;101294.09;5068527;28;20028;-79
2020/12/01 00:33:24;;;;;;;17.55;5.78;;;;;;;12.13;62.43;101279.44;5068534;28;20101;-81
2020/12/01 00:35:50;;;;;;;17.75;3.92;;;;;;;12.01;63.07;101283.72;5066067;28;20048;-79
2020/12/01 00:38:15;;;;;;;20.73;5.97;;;;;;;12.22;62.38;101284.75;5065961;28;20036;-79
2020/12/01 00:40:41;;;;;;;24.58;5.57;;;;;;;12.14;62.88;101292.03;5067206;28;20063;-80
2020/12/01 00:43:06;;;;;;;20.45;5.00;;;;;;;12.11;63.81;101280.66;5064418;28;20032;-80
2020/12/01 00:45:31;;;;;;;15.07;5.53;;;;;;;12.17;63.32;101283.47;5064495;28;20063;-79
2020/12/01 00:47:57;;;;;;;22.20;6.03;;;;;;;12.14;63.78;101285.72;5065761;28;20606;-79
2020/12/01 00:50:24;;;;;;;24.88;5.05;;;;;;;12.24;63.87;101279.97;5066702;28;21614;-79
2020/12/01 00:52:49;;;;;;;18.02;4.82;;;;;;;12.30;63.87;101273.72;5065872;28;20035;-79
2020/12/01 00:55:15;;;;;;;21.80;7.15;;;;;;;12.09;64.33;101269.13;5064947;28;20036;-79
2020/12/01 00:57:40;;;;;;;17.95;6.10;;;;;;;12.15;63.75;101273.78;5065374;28;20390;-78
2020/12/01 01:00:09;;;;;;;13.70;4.47;;;;;;;12.22;63.64;101273.84;5066619;28;20032;-79
2020/12/01 01:02:35;;;;;;;12.68;4.45;;;;;;;12.22;63.64;101262.94;5064980;28;20050;-79
2020/12/01 01:05:00;;;;;;;16.25;5.28;;;;;;;12.20;63.97;101267.75;5066769;28;20734;-78
2020/12/01 01:07:26;;;;;;;16.98;5.65;;;;;;;12.26;64.33;101266.97;5065886;28;20125;-80
2020/12/01 01:09:51;;;;;;;19.08;5.70;;;;;;;12.28;64.53;101271.19;5068373;28;20055;-79
2020/12/01 01:12:16;;;;;;;10.32;2.92;;;;;;;12.18;65.56;101276.97;5065556;28;20037;-78
2020/12/01 01:14:42;;;;;;;17.20;5.00;;;;;;;12.24;65.41;101272.59;5066069;28;20036;-81
2020/12/01 01:17:07;;;;;;;15.88;5.32;;;;;;;12.27;64.98;101277.66;5063470;28;20108;-79
2020/12/01 01:19:33;;;;;;;12.48;4.18;;;;;;;12.36;65.04;101262.00;5062441;28;20040;-80
2020/12/01 01:21:58;;;;;;;19.27;4.35;;;;;;;12.47;64.46;101261.47;5064656;28;20486;-81
2020/12/01 01:24:24;;;;;;;15.00;5.13;;;;;;;12.34;65.63;101264.06;5065411;28;20090;-77
2020/12/01 01:26:51;;;;;;;21.15;5.10;;;;;;;12.41;65.07;101275.91;5065862;28;20083;-80
2020/12/01 01:29:17;;;;;;;23.23;5.50;;;;;;;12.37;65.21;101280.03;5064632;28;20041;-80
2020/12/01 01:31:43;;;;;;;16.38;4.53;;;;;;;12.20;65.32;101279.50;5082214;28;20565;-79
2020/12/01 01:34:09;;;;;;;16.13;4.93;;;;;;;12.30;65.51;101280.00;5067933;28;20149;-79
2020/12/01 01:36:35;;;;;;;24.90;5.53;;;;;;;12.61;64.63;101281.50;5067086;28;20411;-79
2020/12/01 01:39:02;;;;;;;20.88;5.60;;;;;;;12.26;65.86;101292.34;5065720;28;20036;-80
2020/12/01 01:41:30;;;;;;;23.02;7.05;;;;;;;12.43;65.47;101294.78;5064306;28;20040;-80
2020/12/01 01:43:55;;;;;;;16.17;4.95;;;;;;;12.32;65.79;101288.81;5064081;28;20028;-82
2020/12/01 01:46:42;;;;;;;13.68;3.90;;;;;;;12.28;66.15;101292.13;5063952;28;20650;-78
2020/12/01 01:49:13;;;;;;;21.27;4.82;;;;;;;12.28;66.23;101292.13;5065417;28;20036;-76
2020/12/01 01:51:40;;;;;;;17.52;4.13;;;;;;;12.29;65.92;101275.56;5064345;28;20028;-80
2020/12/01 01:54:07;;;;;;;21.10;6.10;;;;;;;12.17;66.10;101278.00;5063396;28;20036;-80
2020/12/01 01:56:37;;;;;;;19.27;5.72;;;;;;;12.16;65.88;101289.13;5064932;28;20044;-77
2020/12/01 01:59:05;;;;;;;16.38;5.95;;;;;;;12.06;66.54;101289.44;5064292;28;20032;-77
2020/12/01 02:01:30;;;;;;;21.10;7.07;;;;;;;12.35;65.77;101285.69;5063720;28;20032;-79
2020/12/01 02:04:04;;;;;;;19.73;7.85;;;;;;;12.43;65.28;101286.59;5065172;28;20426;-77
2020/12/01 02:06:41;;;;;;;25.25;6.93;;;;;;;12.35;65.82;101293.06;5065621;28;20033;-79
2020/12/01 02:09:12;;;;;;;12.30;4.57;;;;;;;12.07;66.87;101306.66;5062423;28;20081;-77
2020/12/01 02:11:42;;;;;;;13.32;5.13;;;;;;;12.10;66.97;101296.19;5065205;28;20430;-78
2020/12/01 02:14:22;;;;;;;13.43;3.65;;;;;;;12.02;67.21;101288.16;5063080;28;20028;-79
2020/12/01 02:16:51;;;;;;;11.95;4.30;;;;;;;12.22;66.72;101285.59;5064525;28;20489;-77
2020/12/01 02:19:21;;;;;;;13.93;7.60;;;;;;;12.06;67.11;101285.88;5063419;28;20459;-76
2020/12/01 02:21:47;;;;;;;21.63;6.13;;;;;;;12.27;66.45;101285.03;5063607;28;20461;-78
2020/12/01 02:24:20;;;;;;;16.67;4.95;;;;;;;12.48;65.68;101274.06;5062169;28;20048;-77
2020/12/01 02:26:56;;;;;;;21.77;5.10;;;;;;;12.43;66.41;101262.88;5065688;28;20047;-77
2020/12/01 02:29:25;;;;;;;17.95;4.65;;;;;;;12.24;67.50;101269.88;5062696;28;20036;-77
2020/12/01 02:31:51;;;;;;;16.40;3.92;;;;;;;12.38;68.53;101272.72;5064558;28;20036;-78
2020/12/01 02:34:19;;;;;;;9.82;3.53;;;;;;;12.36;68.70;101272.94;5064781;28;20700;-80
2020/12/01 02:36:45;;;;;;;20.27;4.03;;;;;;;12.47;68.19;101275.09;5064091;28;20502;-81
2020/12/01 02:39:12;;;;;;;20.45;5.03;;;;;;;12.47;68.55;101268.81;5065718;28;20032;-81
2020/12/01 02:41:38;;;;;;;18.98;7.38;;;;;;;12.30;69.01;101273.72;5063764;28;20028;-80
2020/12/01 02:44:05;;;;;;;17.88;5.40;;;;;;;12.45;68.76;101258.09;5064185;28;20106;-81
2020/12/01 02:46:37;;;;;;;14.20;4.03;;;;;;;12.20;69.80;101262.28;5066455;28;20502;-80
2020/12/01 02:49:07;;;;;;;17.45;4.25;;;;;;;12.46;69.47;101250.75;5063139;28;20033;-78
2020/12/01 02:51:33;;;;;;;13.55;4.45;;;;;;;12.44;69.60;101245.50;5064610;28;20038;-79
2020/12/01 02:53:59;;;;;;;14.35;5.25;;;;;;;12.42;70.19;101250.31;5062220;28;20043;-79
2020/12/01 02:56:24;;;;;;;10.85;3.80;;;;;;;12.50;70.19;101250.16;5064284;28;20036;-82
2020/12/01 02:58:49;;;;;;;15.65;6.45;;;;;;;12.33;71.36;101246.88;5065476;28;20041;-78
2020/12/01 03:01:15;;;;;;;15.00;6.65;;;;;;;12.37;71.10;101239.13;5062987;28;20480;-79
2020/12/01 03:03:40;;;;;;;20.15;6.15;;;;;;;12.61;70.58;101245.19;5065402;28;20025;-81
2020/12/01 03:06:08;;;;;;;22.45;5.90;;;;;;;12.56;70.94;101244.94;5066369;28;20056;-80
2020/12/01 03:08:33;;;;;;;22.88;7.85;;;;;;;12.16;72.46;101256.41;5077932;28;20127;-79
2020/12/01 03:10:59;;;;;;;23.48;6.75;;;;;;;11.96;72.95;101250.78;5064920;28;20086;-79
2020/12/01 03:13:24;;;;;;;24.52;9.63;;;;;;;12.52;71.03;101250.78;5063902;28;20043;-81
2020/12/01 03:15:49;;;;;;;36.80;10.63;;;;;;;12.40;71.23;101252.38;5061358;28;20042;-77
2020/12/01 03:18:15;;;;;;;26.83;10.75;;;;;;;12.41;70.65;101251.34;5065931;28;20040;-78
2020/12/01 03:20:40;;;;;;;22.30;6.50;;;;;;;12.11;70.99;101248.81;5047768;28;20048;-79
2020/12/01 03:23:06;;;;;;;21.35;10.20;;;;;;;12.31;70.63;101253.56;5065283;28;20039;-78
2020/12/01 03:25:31;;;;;;;32.88;12.02;;;;;;;12.42;69.75;101271.28;5062046;28;20482;-80
2020/12/01 03:27:56;;;;;;;31.27;6.90;;;;;;;12.21;70.36;101261.25;5080598;28;20053;-80
2020/12/01 03:30:22;;;;;;;32.15;8.80;;;;;;;12.32;69.93;101260.72;5062855;28;20040;-78
2020/12/01 03:32:47;;;;;;;26.55;8.98;;;;;;;12.12;70.34;101255.94;5066189;28;20082;-79
2020/12/01 03:35:13;;;;;;;26.13;8.00;;;;;;;12.22;69.53;101271.09;5064749;28;20439;-78
2020/12/01 03:37:38;;;;;;;29.40;8.80;;;;;;;12.23;69.46;101267.34;5076685;28;20040;-80
2020/12/01 03:40:04;;;;;;;30.05;9.43;;;;;;;12.33;69.11;101276.03;5063107;28;20036;-78
2020/12/01 03:42:29;;;;;;;35.40;13.35;;;;;;;12.22;69.10;101279.28;5064379;28;20110;-77
2020/12/01 03:44:54;;;;;;;43.33;11.68;;;;;;;12.26;69.29;101272.41;5068869;28;20375;-78
2020/12/01 03:47:20;;;;;;;28.38;10.00;;;;;;;12.30;68.84;101281.91;5069039;28;20051;-78
2020/12/01 03:49:45;;;;;;;45.00;10.70;;;;;;;12.47;68.28;101286.00;5068402;28;20036;-79
2020/12/01 03:52:11;;;;;;;32.97;12.13;;;;;;;12.67;68.27;101294.34;5066613;28;20028;-79
2020/12/01 03:54:36;;;;;;;32.97;11.77;;;;;;;12.21;70.64;101303.00;5068340;28;20036;-77
2020/12/01 03:57:02;;;;;;;34.50;11.02;;;;;;;12.43;69.01;101312.00;5067610;28;20048;-78
2020/12/01 03:59:27;;;;;;;35.90;12.25;;;;;;;12.25;70.04;101308.91;5066114;28;20047;-78
2020/12/01 04:01:52;;;;;;;37.47;12.10;;;;;;;12.07;70.77;101310.22;5067247;28;20028;-78
2020/12/01 04:04:18;;;;;;;35.53;11.13;;;;;;;12.00;70.81;101320.19;5066753;28;20037;-80
2020/12/01 04:06:43;;;;;;;47.97;10.68;;;;;;;12.28;70.70;101297.59;5065503;28;20199;-77
2020/12/01 04:09:09;;;;;;;47.22;10.48;;;;;;;12.19;71.07;101299.63;5068589;28;20024;-78
2020/12/01 04:11:34;;;;;;;31.13;8.23;;;;;;;12.34;70.30;101314.03;5051247;28;20043;-79
2020/12/01 04:13:59;;;;;;;34.85;8.50;;;;;;;12.39;70.17;101318.91;5067877;28;20646;-81
2020/12/01 04:16:25;;;;;;;38.25;11.50;;;;;;;12.07;70.97;101321.13;5066936;28;20037;-79
2020/12/01 04:18:50;;;;;;;38.53;10.45;;;;;;;12.36;70.69;101322.03;5066514;28;20032;-81
2020/12/01 04:21:16;;;;;;;31.30;10.25;;;;;;;11.98;71.20;101328.56;5067018;28;20033;-81
2020/12/01 04:23:42;;;;;;;33.17;11.30;;;;;;;12.03;71.69;101333.44;5068443;28;20032;-80
2020/12/01 04:26:07;;;;;;;29.25;8.38;;;;;;;12.33;70.41;101320.53;5067304;28;20036;-80
2020/12/01 04:28:32;;;;;;;32.28;8.98;;;;;;;12.26;70.35;101330.50;5064353;28;20036;-81
2020/12/01 04:30:58;;;;;;;29.45;8.95;;;;;;;12.39;69.74;101338.00;5083009;28;20662;-78
2020/12/01 04:33:23;;;;;;;33.95;8.77;;;;;;;12.28;70.19;101342.09;5066752;28;20125;-81
2020/12/01 04:35:49;;;;;;;30.73;8.73;;;;;;;12.41;70.12;101346.81;5068420;28;20456;-78
2020/12/01 04:38:14;;;;;;;28.73;7.72;;;;;;;12.20;70.37;101344.09;5064011;28;20043;-81
2020/12/01 04:40:40;;;;;;;33.22;7.57;;;;;;;12.30;70.49;101356.38;5048722;28;20047;-79
2020/12/01 04:43:16;;;;;;;30.90;8.57;;;;;;;12.05;71.19;101347.75;5066131;28;20032;-79
2020/12/01 04:45:45;;;;;;;30.50;8.10;;;;;;;12.35;70.27;101353.88;5068376;28;20581;-82
2020/12/01 04:48:33;;;;;;;29.45;7.20;;;;;;;12.21;70.27;101353.97;5066655;28;21544;-79
2020/12/01 04:51:05;;;;;;;27.33;8.05;;;;;;;12.40;70.10;101360.66;5066010;28;20121;-80
2020/12/01 04:53:49;;;;;;;23.88;7.75;;;;;;;12.22;70.85;101369.28;5066066;28;20032;-80
2020/12/01 04:56:24;;;;;;;26.33;8.60;;;;;;;12.06;71.59;101373.94;5066102;28;20048;-79
2020/12/01 04:59:03;;;;;;;23.42;9.43;;;;;;;11.94;71.50;101368.16;5064896;28;20112;-81
2020/12/01 05:01:47;;;;;;;29.02;7.55;;;;;;;12.02;71.69;101377.25;5068393;28;20098;-81
2020/12/01 05:04:27;;;;;;;31.75;7.80;;;;;;;12.27;70.81;101385.91;5064286;28;20116;-79
2020/12/01 05:07:31;;;;;;;30.02;10.55;;;;;;;12.09;71.12;101378.19;5067009;28;20032;-79
2020/12/01 05:10:02;;;;;;;34.53;12.75;;;;;;;12.13;71.35;101395.84;5066259;28;20035;-81
2020/12/01 05:12:33;;;;;;;35.38;14.55;;;;;;;12.26;70.93;101384.22;5062338;28;20614;-82
2020/12/01 05:15:12;;;;;;;32.42;12.27;;;;;;;11.97;71.36;101396.91;5067042;28;20028;-82
2020/12/01 05:17:46;;;;;;;33.13;11.27;;;;;;;12.26;70.42;101397.84;5063500;28;20032;-82
2020/12/01 05:20:12;;;;;;;35.80;9.95;;;;;;;12.18;70.80;101407.00;5065908;28;20539;-79
2020/12/01 05:22:40;;;;;;;36.47;11.30;;;;;;;12.32;70.08;101397.91;5066739;28;20062;-80
2020/12/01 05:25:17;;;;;;;34.90;9.80;;;;;;;12.00;71.27;101410.16;5048182;28;20033;-81
2020/12/01 05:27:42;;;;;;;41.03;8.73;;;;;;;12.14;70.36;101417.47;5065914;28;20035;-81
2020/12/01 05:30:23;;;;;;;43.20;11.63;;;;;;;12.26;70.20;101425.97;5063221;28;20028;-82
2020/12/01 05:33:26;;;;;;;42.42;10.48;;;;;;;12.26;69.74;101442.31;5063914;28;20772;-80
2020/12/01 05:36:21;;;;;;;45.50;11.98;;;;;;;12.23;69.39;101436.44;5062464;28;20094;-79
2020/12/01 05:39:05;;;;;;;40.35;8.80;;;;;;;12.22;69.43;101437.44;5063642;28;20127;-81
2020/12/01 05:41:37;;;;;;;33.97;10.32;;;;;;;12.23;69.05;101453.63;5066092;28;20111;-81
2020/12/01 05:44:04;;;;;;;;;;;;;;;12.46;68.08;101442.53;5065225;28;20375;-80
2020/12/01 05:46:37;;;;;;;48.40;12.70;;;;;;;12.30;68.35;101460.00;5067264;28;19920;-79
2020/12/01 05:49:25;;;;;;;50.33;11.32;;;;;;;12.34;68.29;101463.19;5060912;28;20035;-78
2020/12/01 05:52:18;;;;;;;43.50;11.15;;;;;;;12.15;68.50;101464.66;5067318;28;20513;-80
2020/12/01 05:55:02;;;;;;;38.88;8.40;;;;;;;12.28;68.39;101475.72;5062468;28;20425;-79
2020/12/01 05:57:28;;;;;;;36.83;9.32;;;;;;;12.32;68.25;101485.19;5067727;28;20806;-79
2020/12/01 06:00:03;;;;;;;44.33;9.45;;;;;;;12.23;68.23;101493.69;5061417;28;20028;-79
2020/12/01 06:03:04;;;;;;;36.30;9.23;;;;;;;12.35;68.15;101506.63;5066038;28;20039;-80
2020/12/01 06:05:29;;;;;;;47.17;15.00;;;;;;;12.18;68.94;101495.09;5065732;28;20039;-82
2020/12/01 06:08:03;;;;;;;24.60;9.32;;;;;;;12.03;69.38;101502.47;5065781;28;20041;-81
2020/12/01 06:10:40;;;;;;;42.38;8.93;;;;;;;12.13;68.80;101507.63;5065477;28;20039;-81
2020/12/01 06:13:34;;;;;;;35.00;10.93;;;;;;;12.36;68.43;101507.50;5066938;28;20424;-81
2020/12/01 06:16:21;;;;;;;56.58;12.85;;;;;;;12.33;68.44;101510.59;5060906;28;20088;-80
2020/12/01 06:19:08;;;;;;;41.10;9.90;;;;;;;12.38;68.37;101510.88;5065403;28;20036;-80
2020/12/01 06:21:52;;;;;;;49.25;11.88;;;;;;;12.35;68.03;101527.63;5064485;28;20032;-79
2020/12/01 06:24:56;;;;;;;43.92;10.13;;;;;;;12.40;68.24;101529.78;5065177;28;20058;-80
2020/12/01 06:27:43;;;;;;;41.78;8.27;;;;;;;12.48;67.83;101532.38;5061425;28;20028;-79
2020/12/01 06:30:26;;;;;;;30.70;10.02;;;;;;;12.46;67.62;101521.66;5066334;28;20043;-80
2020/12/01 06:32:57;;;;;;;29.88;10.00;;;;;;;12.28;67.65;101546.63;5064256;28;20029;-80
2020/12/01 06:35:52;;;;;;;36.75;9.18;;;;;;;12.20;67.71;101538.53;5059673;28;20056;-80
2020/12/01 06:38:56;;;;;;;40.35;9.18;;;;;;;12.24;67.33;101544.47;5042455;28;20121;-83
2020/12/01 06:41:23;;;;;;;35.15;13.85;;;;;;;12.16;67.13;101557.16;5043587;28;21966;-79
2020/12/01 06:43:56;;;;;;;36.80;11.60;;;;;;;12.35;66.71;101554.91;5064233;28;20399;-81
2020/12/01 06:46:39;;;;;;;33.38;11.38;;;;;;;12.23;67.09;101567.31;5062375;28;20123;-81
2020/12/01 06:49:11;;;;;;;37.72;8.65;;;;;;;12.21;66.78;101566.69;5062186;28;20037;-79
2020/12/01 06:51:38;;;;;;;43.20;9.38;;;;;;;12.00;66.70;101579.16;5061660;28;20052;-80
2020/12/01 06:54:10;;;;;;;34.70;9.00;;;;;;;12.13;66.18;101573.06;5063053;28;20039;-80
2020/12/01 06:56:36;;;;;;;39.40;8.98;;;;;;;12.09;66.29;101578.03;5062308;28;20041;-80
2020/12/01 06:59:07;;;;;;;46.15;10.57;;;;;;;12.23;66.26;101570.88;5064327;28;20020;-79
2020/12/01 07:01:34;;;;;;;39.25;11.32;;;;;;;12.24;66.21;101580.78;5061621;28;20032;-78
2020/12/01 07:04:12;;;;;;;32.22;9.95;;;;;;;12.17;66.40;101586.16;5062850;28;20038;-79
2020/12/01 07:06:45;;;;;;;46.50;12.82;;;;;;;12.38;65.88;101597.31;5067084;28;20144;-79
2020/12/01 07:09:16;;;;;;;48.95;11.55;;;;;;;12.35;65.67;101593.09;5064045;28;20077;-80
2020/12/01 07:11:55;;;;;;;38.17;11.20;;;;;;;12.62;65.38;101598.88;5060715;28;20037;-79
2020/12/01 07:14:25;;;;;;;44.50;10.00;;;;;;;12.69;64.52;101591.63;5063970;28;20032;-81
2020/12/01 07:16:51;;;;;;;37.20;10.27;;;;;;;12.68;64.63;101606.28;5064236;28;20054;-79
2020/12/01 07:19:42;;;;;;;35.00;8.05;;;;;;;12.39;64.86;101623.53;5068556;28;20036;-79
2020/12/01 07:22:20;;;;;;;41.78;10.43;;;;;;;12.36;64.17;101619.34;5067384;28;20513;-81
2020/12/01 07:24:54;;;;;;;37.25;10.95;;;;;;;12.56;63.41;101626.91;5067142;28;20075;-78
2020/12/01 07:27:41;;;;;;;35.60;10.45;;;;;;;12.40;63.01;101628.81;5068528;28;20060;-80
2020/12/01 07:30:19;;;;;;;33.05;8.13;;;;;;;12.26;63.15;101627.78;5067889;28;20040;-78
2020/12/01 07:33:13;;;;;;;28.63;6.57;;;;;;;12.55;62.35;101631.53;5066209;28;20048;-78
2020/12/01 07:35:41;;;;;;;37.65;7.45;;;;;;;12.48;62.35;101625.13;5067833;28;20619;-81
2020/12/01 07:38:36;;;;;;;32.95;6.97;;;;;;;12.26;62.76;101635.13;5066876;28;20029;-80
2020/12/01 07:41:23;;;;;;;33.65;8.02;;;;;;;12.56;61.63;101654.19;5066006;28;20059;-79
2020/12/01 07:44:09;;;;;;;25.30;6.88;;;;;;;12.51;61.53;101636.53;5059174;28;20028;-78
2020/12/01 07:49:19;;;;;;;39.78;10.00;;;;;;;12.52;60.91;101660.03;5067282;28;20028;-80
2020/12/01 07:51:46;;;;;;;;;;;;;;;12.35;60.56;101662.13;5065225;28;20035;-78
2020/12/01 07:54:19;;;;;;;33.67;9.30;;;;;;;12.56;59.95;101670.56;5067770;28;19921;-80
2020/12/01 07:56:44;;;;;;;30.30;10.40;;;;;;;12.50;59.89;101678.50;5065756;28;20147;-79
2020/12/01 07:59:12;;;;;;;31.05;6.85;;;;;;;12.53;59.91;101677.28;5064983;28;20591;-77
2020/12/01 08:01:39;;;;;;;25.05;6.93;;;;;;;12.66;60.22;101687.50;5064211;28;20035;-82
2020/12/01 08:04:13;;;;;;;23.50;7.38;;;;;;;12.40;59.92;101680.66;5064283;28;20032;-79
2020/12/01 08:06:39;;;;;;;26.58;7.57;;;;;;;12.38;61.56;101690.06;5067834;28;20513;-78
2020/12/01 08:09:21;;;;;;;26.23;7.18;;;;;;;12.39;62.00;101689.88;5066076;28;20068;-79
2020/12/01 08:11:50;;;;;;;39.05;8.52;;;;;;;12.39;61.87;101689.00;5070489;28;20044;-80
2020/12/01 08:14:16;;;;;;;31.10;7.15;;;;;;;12.50;61.86;101704.94;5064634;28;20052;-79
2020/12/01 08:16:42;;;;;;;30.65;8.48;;;;;;;12.22;62.75;101702.84;5068958;28;20664;-79
2020/12/01 08:19:11;;;;;;;33.25;8.27;;;;;;;12.42;61.90;101689.50;5067067;28;20081;-79
2020/12/01 08:21:43;;;;;;;25.15;6.90;;;;;;;12.51;61.54;101696.56;5064256;28;20053;-78
2020/12/01 08:24:16;;;;;;;40.97;8.98;;;;;;;12.63;61.04;101698.81;5065613;28;20028;-79
2020/12/01 08:26:42;;;;;;;32.30;8.32;;;;;;;12.31;60.76;101707.19;5062836;28;20025;-77
2020/12/01 08:29:26;;;;;;;33.13;7.88;;;;;;;12.66;60.68;101723.00;5044821;28;20107;-78
2020/12/01 08:32:06;;;;;;;27.25;7.13;;;;;;;12.57;60.27;101716.78;5065814;28;20033;-80
2020/12/01 08:35:05;;;;;;;26.15;5.97;;;;;;;12.68;59.73;101720.91;5066675;28;20024;-81
2020/12/01 08:38:10;;;;;;;27.30;6.93;;;;;;;12.66;59.59;101726.56;5030247;28;20056;-78
2020/12/01 08:41:07;;;;;;;32.28;7.00;;;;;;;12.65;59.35;101715.84;5066165;28;20486;-78
2020/12/01 08:43:51;;;;;;;40.20;8.77;;;;;;;12.68;59.61;101735.44;5063288;28;20098;-78
2020/12/01 08:46:24;;;;;;;27.05;7.75;;;;;;;12.85;59.01;101741.53;5064300;28;20103;-80
2020/12/01 08:49:06;;;;;;;35.33;8.30;;;;;;;12.73;59.18;101737.59;5063634;28;20449;-77
2020/12/01 08:51:35;;;;;;;34.30;9.73;;;;;;;13.01;58.70;101745.09;5067268;28;20118;-78
2020/12/01 08:54:05;;;;;;;24.58;8.35;;;;;;;13.03;58.55;101738.41;5064511;28;20033;-79
2020/12/01 08:57:06;;;;;;;31.33;6.13;;;;;;;12.80;58.37;101740.41;5066390;28;20072;-79
2020/12/01 08:59:46;;;;;;;30.02;6.40;;;;;;;12.79;58.75;101747.75;5060098;28;20507;-79
2020/12/01 09:02:12;;;;;;;35.75;7.25;;;;;;;12.72;57.83;101744.91;5064392;28;20031;-78
2020/12/01 09:04:38;;;;;;;31.40;8.48;;;;;;;12.71;57.64;101748.69;5068282;28;20035;-78
2020/12/01 09:07:06;;;;;;;26.35;7.97;;;;;;;12.68;56.75;101751.81;5066757;28;20040;-79
2020/12/01 09:09:33;;;;;;;27.40;7.38;;;;;;;13.00;56.37;101751.59;5067111;28;20666;-78
2020/12/01 09:12:16;;;;;;;25.40;7.07;;;;;;;12.80;56.13;101759.50;5062722;28;20039;-79
2020/12/01 09:17:46;;;;;;;37.00;8.30;;;;;;;12.78;55.79;101778.81;5063725;28;20121;-79
2020/12/01 09:23:24;;;;;;;30.80;9.65;;;;;;;13.26;55.90;101781.97;5064233;28;20036;-79
2020/12/01 09:25:51;;;;;;;22.63;6.30;;;;;;;13.08;55.45;101774.19;5066638;28;20470;-79
2020/12/01 09:28:27;;;;;;;33.72;10.52;;;;;;;12.96;55.77;101783.91;5060150;28;20516;-80
2020/12/01 09:31:02;;;;;;;35.42;9.00;;;;;;;13.24;55.20;101792.25;5065272;28;20415;-78
2020/12/01 09:33:28;;;;;;;29.67;8.18;;;;;;;13.22;55.49;101791.59;5063835;28;20146;-83
2020/12/01 09:35:54;;;;;;;27.98;9.57;;;;;;;13.55;55.80;101785.72;5063303;28;20143;-79
2020/12/01 09:38:19;;;;;;;34.17;9.43;;;;;;;13.22;56.24;101797.06;5064202;28;20028;-79
2020/12/01 09:40:48;;;;;;;36.40;8.60;;;;;;;14.01;54.73;101791.84;5057517;28;20037;-78
2020/12/01 09:43:24;;;;;;;32.40;8.68;;;;;;;14.46;52.57;101789.72;5061745;28;20032;-79
2020/12/01 09:45:51;;;;;;;24.75;7.40;;;;;;;15.14;50.64;101795.44;5067732;28;20081;-79
2020/12/01 09:48:41;;;;;;;31.02;7.88;;;;;;;14.58;50.81;101799.09;5064918;28;20502;-78
2020/12/01 09:51:04;;;;;;;31.13;7.20;;;;;;;14.77;50.36;101797.56;5062501;28;20470;-79
2020/12/01 09:56:17;;;;;;;26.85;5.82;;;;;;;14.44;51.59;101797.28;5065522;28;20052;-79
2020/12/01 10:09:10;;;;;;;20.98;4.85;;;;;;;13.62;54.97;101802.19;5065788;28;20048;-81
2020/12/01 10:35:35;;;;;;;26.58;8.10;;;;;;;14.29;52.61;101814.63;5054490;28;20907;-81
2020/12/01 10:38:02;;;;;;;28.42;6.80;;;;;;;14.39;53.00;101829.88;5063731;28;20032;-82
2020/12/01 10:40:29;;;;;;;34.83;6.90;;;;;;;14.26;52.12;101825.97;5057036;28;20035;-81
2020/12/01 10:42:55;;;;;;;26.58;6.93;;;;;;;14.44;52.13;101824.66;5063431;28;20028;-80
2020/12/01 10:45:22;;;;;;;34.35;6.68;;;;;;;14.18;52.86;101828.00;5064609;28;20604;-80
2020/12/01 10:47:47;;;;;;;22.95;5.55;;;;;;;13.97;52.63;101830.53;5065014;28;20067;-82
2020/12/01 10:50:15;;;;;;;28.02;7.43;;;;;;;14.38;52.45;101831.78;5064013;28;20032;-80
2020/12/01 10:52:41;;;;;;;25.35;7.13;;;;;;;13.83;52.05;101836.91;5066170;28;20111;-79
2020/12/01 10:55:07;;;;;;;39.42;7.50;;;;;;;14.45;50.99;101824.44;5068707;28;20099;-80
2020/12/01 10:57:35;;;;;;;26.90;6.18;;;;;;;14.62;50.10;101825.03;5063837;28;20451;-79
2020/12/01 11:00:04;;;;;;;31.70;7.88;;;;;;;14.64;49.84;101824.84;5063624;28;20426;-82
2020/12/01 11:02:30;;;;;;;25.88;6.88;;;;;;;14.33;48.92;101826.03;5067740;28;20028;-79
2020/12/01 11:04:55;;;;;;;22.92;5.35;;;;;;;14.52;49.75;101827.25;5067503;28;20031;-83
2020/12/01 11:07:20;;;;;;;29.85;5.97;;;;;;;14.38;50.39;101829.03;5065320;28;20040;-80
2020/12/01 11:09:46;;;;;;;23.85;6.28;;;;;;;14.46;49.75;101836.25;5068007;28;20188;-80
2020/12/01 11:12:11;;;;;;;23.92;5.53;;;;;;;14.09;49.68;101840.97;5066764;28;20789;-80
2020/12/01 11:14:37;;;;;;;28.23;7.05;;;;;;;14.40;49.70;101837.06;5069589;28;20117;-79
2020/12/01 11:17:02;;;;;;;29.58;6.30;;;;;;;14.28;49.99;101834.00;5067196;28;20055;-80
2020/12/01 11:19:27;;;;;;;26.10;6.18;;;;;;;14.00;50.75;101850.34;5067972;28;20032;-80
2020/12/01 11:21:53;;;;;;;32.33;7.25;;;;;;;13.75;50.45;101840.59;5065519;28;20037;-82
2020/12/01 11:24:18;;;;;;;27.15;6.35;;;;;;;13.70;51.29;101853.16;5066539;28;20074;-80
2020/12/01 11:26:43;;;;;;;27.83;5.82;;;;;;;14.39;50.88;101851.75;5068630;28;20032;-78
2020/12/01 11:29:09;;;;;;;23.27;5.75;;;;;;;14.32;50.86;101860.75;5080489;28;20479;-78
2020/12/01 11:31:35;;;;;;;25.48;5.88;;;;;;;14.16;51.92;101855.53;5067206;28;20039;-77
2020/12/01 11:34:01;;;;;;;26.25;7.28;;;;;;;14.15;52.00;101867.56;5067582;28;20508;-78
2020/12/01 11:36:27;;;;;;;30.38;5.82;;;;;;;14.03;52.36;101860.91;5065756;28;20052;-81
2020/12/01 11:38:52;;;;;;;26.92;7.22;;;;;;;14.17;52.31;101856.41;5065717;28;20024;-79
2020/12/01 11:41:18;;;;;;;31.52;6.82;;;;;;;14.42;52.13;101856.84;5071160;28;20035;-78
2020/12/01 11:43:43;;;;;;;26.85;7.75;;;;;;;14.52;52.21;101862.84;5066477;28;20032;-79
2020/12/01 11:46:09;;;;;;;26.77;6.63;;;;;;;14.41;51.84;101857.88;5067318;28;20041;-79
2020/12/01 11:48:35;;;;;;;29.67;7.88;;;;;;;14.11;53.07;101858.03;5066884;28;20032;-79
2020/12/01 11:51:00;;;;;;;29.95;6.38;;;;;;;13.94;52.31;101868.38;5067406;28;20038;-79
2020/12/01 11:53:26;;;;;;;22.92;7.10;;;;;;;13.60;52.83;101864.41;5068051;28;20082;-79
2020/12/01 11:55:51;;;;;;;30.98;6.80;;;;;;;13.69;52.86;101862.41;5067788;28;20032;-79
2020/12/01 11:58:16;;;;;;;27.38;5.60;;;;;;;13.74;53.36;101862.66;5069968;28;20033;-79
2020/12/01 12:00:42;;;;;;;31.95;7.07;;;;;;;13.81;52.63;101865.47;5064903;28;20297;-80
2020/12/01 12:03:07;;;;;;;30.23;7.20;;;;;;;14.06;52.26;101866.81;5064825;28;20033;-80
2020/12/01 12:05:33;;;;;;;24.27;6.13;;;;;;;13.89;51.82;101866.22;5062114;28;20086;-80
2020/12/01 12:07:58;;;;;;;28.23;6.20;;;;;;;14.06;52.05;101861.34;5068741;28;20055;-80
2020/12/01 12:10:23;;;;;;;30.70;7.47;;;;;;;14.07;51.89;101863.06;5063802;28;20843;-81
2020/12/01 12:12:49;;;;;;;23.83;6.68;;;;;;;13.99;51.67;101873.25;5066584;28;20032;-80
2020/12/01 12:15:15;;;;;;;29.00;6.40;;;;;;;13.75;51.47;101867.94;5066460;28;20044;-81
2020/12/01 12:17:40;;;;;;;24.67;5.75;;;;;;;14.02;51.33;101856.47;5064624;28;20032;-79
2020/12/01 12:20:06;;;;;;;26.50;5.05;;;;;;;13.97;52.11;101863.34;5067385;28;20048;-79